sensor_id;sensor_type;location;lat;lon;timestamp;temperature;humidity
65568;DHT22;52211;50.154;8.682;2023-04-10T00:01:39;9.90;47.20
65568;DHT22;52211;50.154;8.682;2023-04-10T00:04:08;9.90;47.40
65568;DHT22;52211;50.154;8.682;2023-04-10T00:06:37;9.90;47.50
65568;DHT22;52211;50.154;8.682;2023-04-10T00:09:06;9.90;47.50
65568;DHT22;52211;50.154;8.682;2023-04-10T00:11:34;9.90;47.60
65568;DHT22;52211;50.154;8.682;2023-04-10T00:14:01;9.80;47.60
65568;DHT22;52211;50.154;8.682;2023-04-10T00:16:28;9.80;47.70
65568;DHT22;52211;50.154;8.682;2023-04-10T00:18:57;9.80;47.70
65568;DHT22;52211;50.154;8.682;2023-04-10T00:21:29;9.70;47.70
65568;DHT22;52211;50.154;8.682;2023-04-10T00:23:56;9.70;47.90
65568;DHT22;52211;50.154;8.682;2023-04-10T00:26:23;9.70;47.90
65568;DHT22;52211;50.154;8.682;2023-04-10T00:28:52;9.70;47.90
65568;DHT22;52211;50.154;8.682;2023-04-10T00:31:21;9.60;47.90
65568;DHT22;52211;50.154;8.682;2023-04-10T00:33:48;9.60;48.00
65568;DHT22;52211;50.154;8.682;2023-04-10T00:36:17;9.60;48.10
65568;DHT22;52211;50.154;8.682;2023-04-10T00:38:44;9.50;48.10
65568;DHT22;52211;50.154;8.682;2023-04-10T00:41:14;9.50;48.20
65568;DHT22;52211;50.154;8.682;2023-04-10T00:43:44;9.50;48.20
65568;DHT22;52211;50.154;8.682;2023-04-10T00:46:13;9.50;48.20
65568;DHT22;52211;50.154;8.682;2023-04-10T00:48:43;9.40;48.20
65568;DHT22;52211;50.154;8.682;2023-04-10T00:51:11;9.40;48.20
65568;DHT22;52211;50.154;8.682;2023-04-10T00:53:38;9.40;48.30
65568;DHT22;52211;50.154;8.682;2023-04-10T00:56:06;9.30;48.30
65568;DHT22;52211;50.154;8.682;2023-04-10T00:58:36;9.30;48.30
65568;DHT22;52211;50.154;8.682;2023-04-10T01:01:08;9.30;48.40
65568;DHT22;52211;50.154;8.682;2023-04-10T01:03:38;9.20;48.50
65568;DHT22;52211;50.154;8.682;2023-04-10T01:11:44;9.20;48.80
65568;DHT22;52211;50.154;8.682;2023-04-10T01:14:56;9.20;49.40
65568;DHT22;52211;50.154;8.682;2023-04-10T01:20:15;9.10;49.40
65568;DHT22;52211;50.154;8.682;2023-04-10T01:26:14;9.10;49.40
65568;DHT22;52211;50.154;8.682;2023-04-10T01:31:34;9.00;49.10
65568;DHT22;52211;50.154;8.682;2023-04-10T01:34:12;8.90;49.20
65568;DHT22;52211;50.154;8.682;2023-04-10T01:36:58;8.90;49.20
65568;DHT22;52211;50.154;8.682;2023-04-10T01:39:32;8.90;49.40
65568;DHT22;52211;50.154;8.682;2023-04-10T01:42:08;8.80;49.00
65568;DHT22;52211;50.154;8.682;2023-04-10T01:44:41;8.80;49.30
65568;DHT22;52211;50.154;8.682;2023-04-10T01:47:16;8.80;49.00
65568;DHT22;52211;50.154;8.682;2023-04-10T01:49:50;8.80;49.10
65568;DHT22;52211;50.154;8.682;2023-04-10T01:52:20;8.80;49.40
65568;DHT22;52211;50.154;8.682;2023-04-10T01:54:58;8.70;49.20
65568;DHT22;52211;50.154;8.682;2023-04-10T01:57:35;8.70;49.30
65568;DHT22;52211;50.154;8.682;2023-04-10T02:00:03;8.60;49.20
65568;DHT22;52211;50.154;8.682;2023-04-10T02:02:43;8.60;49.30
65568;DHT22;52211;50.154;8.682;2023-04-10T02:05:14;8.60;49.60
65568;DHT22;52211;50.154;8.682;2023-04-10T02:08:03;8.60;49.50
65568;DHT22;52211;50.154;8.682;2023-04-10T02:10:55;8.60;50.50
65568;DHT22;52211;50.154;8.682;2023-04-10T02:13:28;8.60;50.30
65568;DHT22;52211;50.154;8.682;2023-04-10T02:15:59;8.50;49.60
65568;DHT22;52211;50.154;8.682;2023-04-10T02:18:32;8.50;49.80
65568;DHT22;52211;50.154;8.682;2023-04-10T02:21:01;8.60;49.80
65568;DHT22;52211;50.154;8.682;2023-04-10T02:23:31;8.50;49.80
65568;DHT22;52211;50.154;8.682;2023-04-10T02:26:07;8.50;49.90
65568;DHT22;52211;50.154;8.682;2023-04-10T02:28:37;8.50;50.20
65568;DHT22;52211;50.154;8.682;2023-04-10T02:31:06;8.50;49.80
65568;DHT22;52211;50.154;8.682;2023-04-10T02:33:33;8.50;49.90
65568;DHT22;52211;50.154;8.682;2023-04-10T02:36:08;8.50;49.90
65568;DHT22;52211;50.154;8.682;2023-04-10T02:38:39;8.50;50.00
65568;DHT22;52211;50.154;8.682;2023-04-10T02:41:10;8.50;50.10
65568;DHT22;52211;50.154;8.682;2023-04-10T02:43:40;8.40;49.90
65568;DHT22;52211;50.154;8.682;2023-04-10T02:46:09;8.50;50.00
65568;DHT22;52211;50.154;8.682;2023-04-10T02:48:39;8.40;50.20
65568;DHT22;52211;50.154;8.682;2023-04-10T02:51:06;8.40;50.10
65568;DHT22;52211;50.154;8.682;2023-04-10T02:53:33;8.40;50.10
65568;DHT22;52211;50.154;8.682;2023-04-10T02:56:02;8.40;50.10
65568;DHT22;52211;50.154;8.682;2023-04-10T02:58:34;8.40;50.20
65568;DHT22;52211;50.154;8.682;2023-04-10T03:01:01;8.40;50.30
65568;DHT22;52211;50.154;8.682;2023-04-10T03:03:38;8.40;50.30
65568;DHT22;52211;50.154;8.682;2023-04-10T03:06:07;8.30;50.20
65568;DHT22;52211;50.154;8.682;2023-04-10T03:08:38;8.30;50.20
65568;DHT22;52211;50.154;8.682;2023-04-10T03:11:08;8.30;50.40
65568;DHT22;52211;50.154;8.682;2023-04-10T03:13:39;8.30;50.60
65568;DHT22;52211;50.154;8.682;2023-04-10T03:16:09;8.30;50.60
65568;DHT22;52211;50.154;8.682;2023-04-10T03:18:39;8.30;50.50
65568;DHT22;52211;50.154;8.682;2023-04-10T03:21:06;8.30;50.60
65568;DHT22;52211;50.154;8.682;2023-04-10T03:23:33;8.20;50.60
65568;DHT22;52211;50.154;8.682;2023-04-10T03:26:05;8.20;50.70
65568;DHT22;52211;50.154;8.682;2023-04-10T03:28:37;8.20;50.70
65568;DHT22;52211;50.154;8.682;2023-04-10T03:31:07;8.20;50.70
65568;DHT22;52211;50.154;8.682;2023-04-10T03:33:37;8.20;50.70
65568;DHT22;52211;50.154;8.682;2023-04-10T03:36:08;8.20;50.90
65568;DHT22;52211;50.154;8.682;2023-04-10T03:38:35;8.20;50.90
65568;DHT22;52211;50.154;8.682;2023-04-10T03:41:05;8.10;50.70
65568;DHT22;52211;50.154;8.682;2023-04-10T03:43:39;8.10;51.00
65568;DHT22;52211;50.154;8.682;2023-04-10T03:46:11;8.10;50.80
65568;DHT22;52211;50.154;8.682;2023-04-10T03:48:43;8.10;50.90
65568;DHT22;52211;50.154;8.682;2023-04-10T03:51:10;8.00;50.90
65568;DHT22;52211;50.154;8.682;2023-04-10T03:53:41;8.00;51.00
65568;DHT22;52211;50.154;8.682;2023-04-10T03:56:13;8.00;51.10
65568;DHT22;52211;50.154;8.682;2023-04-10T03:58:46;8.00;51.10
65568;DHT22;52211;50.154;8.682;2023-04-10T04:01:13;7.90;51.30
65568;DHT22;52211;50.154;8.682;2023-04-10T04:04:08;7.90;51.30
65568;DHT22;52211;50.154;8.682;2023-04-10T04:06:43;7.90;51.40
65568;DHT22;52211;50.154;8.682;2023-04-10T04:09:32;7.90;51.30
65568;DHT22;52211;50.154;8.682;2023-04-10T04:12:27;7.90;51.30
65568;DHT22;52211;50.154;8.682;2023-04-10T04:15:19;7.90;51.50
65568;DHT22;52211;50.154;8.682;2023-04-10T04:18:00;7.90;51.50
65568;DHT22;52211;50.154;8.682;2023-04-10T04:20:44;7.80;51.30
65568;DHT22;52211;50.154;8.682;2023-04-10T04:23:34;7.80;51.40
65568;DHT22;52211;50.154;8.682;2023-04-10T04:26:06;7.80;51.30
65568;DHT22;52211;50.154;8.682;2023-04-10T04:28:36;7.80;51.40
65568;DHT22;52211;50.154;8.682;2023-04-10T04:31:19;7.80;51.50
65568;DHT22;52211;50.154;8.682;2023-04-10T04:34:11;7.80;51.50
65568;DHT22;52211;50.154;8.682;2023-04-10T04:37:05;7.80;51.50
65568;DHT22;52211;50.154;8.682;2023-04-10T04:39:39;7.80;51.70
65568;DHT22;52211;50.154;8.682;2023-04-10T04:42:23;7.70;51.60
65568;DHT22;52211;50.154;8.682;2023-04-10T04:45:15;7.70;51.70
65568;DHT22;52211;50.154;8.682;2023-04-10T04:48:09;7.70;51.70
65568;DHT22;52211;50.154;8.682;2023-04-10T04:51:05;7.70;51.70
65568;DHT22;52211;50.154;8.682;2023-04-10T04:53:49;7.70;51.90
65568;DHT22;52211;50.154;8.682;2023-04-10T04:56:35;7.70;51.80
65568;DHT22;52211;50.154;8.682;2023-04-10T04:59:16;7.70;51.80
65568;DHT22;52211;50.154;8.682;2023-04-10T05:02:13;7.60;51.80
65568;DHT22;52211;50.154;8.682;2023-04-10T05:05:03;7.60;51.80
65568;DHT22;52211;50.154;8.682;2023-04-10T05:07:46;7.60;51.90
65568;DHT22;52211;50.154;8.682;2023-04-10T05:10:24;7.60;52.00
65568;DHT22;52211;50.154;8.682;2023-04-10T05:13:09;7.60;52.00
65568;DHT22;52211;50.154;8.682;2023-04-10T05:15:59;7.50;51.90
65568;DHT22;52211;50.154;8.682;2023-04-10T05:18:50;7.50;52.00
65568;DHT22;52211;50.154;8.682;2023-04-10T05:21:40;7.60;52.10
65568;DHT22;52211;50.154;8.682;2023-04-10T05:24:30;7.50;52.00
65568;DHT22;52211;50.154;8.682;2023-04-10T05:27:14;7.50;52.10
65568;DHT22;52211;50.154;8.682;2023-04-10T05:30:04;7.60;52.20
65568;DHT22;52211;50.154;8.682;2023-04-10T05:32:41;7.50;52.10
65568;DHT22;52211;50.154;8.682;2023-04-10T05:35:41;7.60;52.80
65568;DHT22;52211;50.154;8.682;2023-04-10T05:38:22;7.60;52.20
65568;DHT22;52211;50.154;8.682;2023-04-10T05:41:12;7.60;52.20
65568;DHT22;52211;50.154;8.682;2023-04-10T05:43:55;7.60;52.20
65568;DHT22;52211;50.154;8.682;2023-04-10T05:46:56;7.60;52.20
65568;DHT22;52211;50.154;8.682;2023-04-10T05:49:35;7.60;52.40
65568;DHT22;52211;50.154;8.682;2023-04-10T05:52:15;7.70;52.30
65568;DHT22;52211;50.154;8.682;2023-04-10T05:55:07;7.70;52.40
65568;DHT22;52211;50.154;8.682;2023-04-10T05:57:43;7.70;52.60
65568;DHT22;52211;50.154;8.682;2023-04-10T06:00:27;7.70;52.50
65568;DHT22;52211;50.154;8.682;2023-04-10T06:03:27;7.70;52.30
65568;DHT22;52211;50.154;8.682;2023-04-10T06:06:00;7.80;52.50
65568;DHT22;52211;50.154;8.682;2023-04-10T06:08:29;7.80;52.50
65568;DHT22;52211;50.154;8.682;2023-04-10T06:11:00;7.80;52.50
65568;DHT22;52211;50.154;8.682;2023-04-10T06:13:31;7.90;52.60
65568;DHT22;52211;50.154;8.682;2023-04-10T06:16:03;7.90;52.70
65568;DHT22;52211;50.154;8.682;2023-04-10T06:18:32;7.90;52.50
65568;DHT22;52211;50.154;8.682;2023-04-10T06:21:04;7.90;53.30
65568;DHT22;52211;50.154;8.682;2023-04-10T06:23:31;8.00;52.70
65568;DHT22;52211;50.154;8.682;2023-04-10T06:25:59;8.00;52.70
65568;DHT22;52211;50.154;8.682;2023-04-10T06:28:29;8.10;52.90
65568;DHT22;52211;50.154;8.682;2023-04-10T06:31:01;8.10;52.90
65568;DHT22;52211;50.154;8.682;2023-04-10T06:33:34;8.10;53.00
65568;DHT22;52211;50.154;8.682;2023-04-10T06:36:03;8.10;52.80
65568;DHT22;52211;50.154;8.682;2023-04-10T06:38:37;8.10;52.80
65568;DHT22;52211;50.154;8.682;2023-04-10T06:41:07;8.20;52.90
65568;DHT22;52211;50.154;8.682;2023-04-10T06:43:40;8.20;53.00
65568;DHT22;52211;50.154;8.682;2023-04-10T06:46:13;8.20;53.00
65568;DHT22;52211;50.154;8.682;2023-04-10T06:48:46;8.30;53.00
65568;DHT22;52211;50.154;8.682;2023-04-10T06:51:15;8.30;53.10
65568;DHT22;52211;50.154;8.682;2023-04-10T06:53:44;8.30;53.00
65568;DHT22;52211;50.154;8.682;2023-04-10T06:56:14;8.40;53.00
65568;DHT22;52211;50.154;8.682;2023-04-10T06:58:41;8.40;53.10
65568;DHT22;52211;50.154;8.682;2023-04-10T07:01:10;8.40;53.00
65568;DHT22;52211;50.154;8.682;2023-04-10T07:03:37;8.50;53.20
65568;DHT22;52211;50.154;8.682;2023-04-10T07:06:09;8.50;53.10
65568;DHT22;52211;50.154;8.682;2023-04-10T07:08:37;8.60;53.20
65568;DHT22;52211;50.154;8.682;2023-04-10T07:11:06;8.70;53.20
65568;DHT22;52211;50.154;8.682;2023-04-10T07:13:35;8.80;53.20
65568;DHT22;52211;50.154;8.682;2023-04-10T07:16:05;8.80;53.20
65568;DHT22;52211;50.154;8.682;2023-04-10T07:18:35;8.90;53.20
65568;DHT22;52211;50.154;8.682;2023-04-10T07:21:10;9.00;53.20
65568;DHT22;52211;50.154;8.682;2023-04-10T07:23:42;9.10;53.20
65568;DHT22;52211;50.154;8.682;2023-04-10T07:26:09;9.20;53.20
65568;DHT22;52211;50.154;8.682;2023-04-10T07:28:41;9.30;53.20
65568;DHT22;52211;50.154;8.682;2023-04-10T07:31:08;9.40;53.10
65568;DHT22;52211;50.154;8.682;2023-04-10T07:33:38;9.50;53.00
65568;DHT22;52211;50.154;8.682;2023-04-10T07:36:05;9.60;53.00
65568;DHT22;52211;50.154;8.682;2023-04-10T07:38:32;9.70;53.00
65568;DHT22;52211;50.154;8.682;2023-04-10T07:40:59;9.80;52.90
65568;DHT22;52211;50.154;8.682;2023-04-10T07:43:28;9.90;52.90
65568;DHT22;52211;50.154;8.682;2023-04-10T07:45:55;10.00;52.90
65568;DHT22;52211;50.154;8.682;2023-04-10T07:48:24;10.10;52.90
65568;DHT22;52211;50.154;8.682;2023-04-10T07:50:56;10.20;52.90
65568;DHT22;52211;50.154;8.682;2023-04-10T07:53:24;10.30;52.80
65568;DHT22;52211;50.154;8.682;2023-04-10T07:55:53;10.40;52.80
65568;DHT22;52211;50.154;8.682;2023-04-10T07:58:20;10.50;52.70
65568;DHT22;52211;50.154;8.682;2023-04-10T08:00:50;10.60;52.70
65568;DHT22;52211;50.154;8.682;2023-04-10T08:03:19;10.70;52.70
65568;DHT22;52211;50.154;8.682;2023-04-10T08:05:49;10.80;52.60
65568;DHT22;52211;50.154;8.682;2023-04-10T08:08:18;10.90;52.60
65568;DHT22;52211;50.154;8.682;2023-04-10T08:10:45;11.00;52.60
65568;DHT22;52211;50.154;8.682;2023-04-10T08:13:14;11.10;52.60
65568;DHT22;52211;50.154;8.682;2023-04-10T08:15:44;11.20;52.50
65568;DHT22;52211;50.154;8.682;2023-04-10T08:18:13;11.30;52.50
65568;DHT22;52211;50.154;8.682;2023-04-10T08:20:42;11.40;52.50
65568;DHT22;52211;50.154;8.682;2023-04-10T08:23:13;11.50;52.50
65568;DHT22;52211;50.154;8.682;2023-04-10T08:25:49;11.60;52.50
65568;DHT22;52211;50.154;8.682;2023-04-10T08:28:23;11.80;52.40
65568;DHT22;52211;50.154;8.682;2023-04-10T08:31:00;11.90;52.40
65568;DHT22;52211;50.154;8.682;2023-04-10T08:33:30;12.00;52.30
65568;DHT22;52211;50.154;8.682;2023-04-10T08:35:59;12.10;52.20
65568;DHT22;52211;50.154;8.682;2023-04-10T08:38:26;12.20;52.20
65568;DHT22;52211;50.154;8.682;2023-04-10T08:40:54;12.30;52.10
65568;DHT22;52211;50.154;8.682;2023-04-10T08:43:21;12.40;52.00
65568;DHT22;52211;50.154;8.682;2023-04-10T08:45:51;12.60;52.00
65568;DHT22;52211;50.154;8.682;2023-04-10T08:48:30;12.70;52.00
65568;DHT22;52211;50.154;8.682;2023-04-10T08:51:04;12.80;51.90
65568;DHT22;52211;50.154;8.682;2023-04-10T08:53:45;12.90;51.70
65568;DHT22;52211;50.154;8.682;2023-04-10T08:56:17;13.00;51.40
65568;DHT22;52211;50.154;8.682;2023-04-10T08:58:50;13.10;51.30
65568;DHT22;52211;50.154;8.682;2023-04-10T09:01:20;13.30;51.30
65568;DHT22;52211;50.154;8.682;2023-04-10T09:03:48;13.40;51.20
65568;DHT22;52211;50.154;8.682;2023-04-10T09:06:17;13.50;51.00
65568;DHT22;52211;50.154;8.682;2023-04-10T09:08:46;13.60;50.90
65568;DHT22;52211;50.154;8.682;2023-04-10T09:11:15;13.80;50.90
65568;DHT22;52211;50.154;8.682;2023-04-10T09:13:47;13.90;50.70
65568;DHT22;52211;50.154;8.682;2023-04-10T09:16:13;14.00;50.50
65568;DHT22;52211;50.154;8.682;2023-04-10T09:18:47;14.10;50.40
65568;DHT22;52211;50.154;8.682;2023-04-10T09:21:19;14.20;50.30
65568;DHT22;52211;50.154;8.682;2023-04-10T09:23:59;14.30;50.10
65568;DHT22;52211;50.154;8.682;2023-04-10T09:26:33;14.40;49.80
65568;DHT22;52211;50.154;8.682;2023-04-10T09:29:01;14.50;49.50
65568;DHT22;52211;50.154;8.682;2023-04-10T09:34:16;14.80;50.50
65568;DHT22;52211;50.154;8.682;2023-04-10T09:37:02;15.00;49.80
65568;DHT22;52211;50.154;8.682;2023-04-10T09:39:37;15.20;49.50
65568;DHT22;52211;50.154;8.682;2023-04-10T09:42:09;15.30;49.20
65568;DHT22;52211;50.154;8.682;2023-04-10T09:44:44;15.50;49.50
65568;DHT22;52211;50.154;8.682;2023-04-10T09:52:26;15.90;48.80
65568;DHT22;52211;50.154;8.682;2023-04-10T09:55:02;16.00;48.70
65568;DHT22;52211;50.154;8.682;2023-04-10T09:57:32;16.20;48.60
65568;DHT22;52211;50.154;8.682;2023-04-10T10:00:04;16.30;48.50
65568;DHT22;52211;50.154;8.682;2023-04-10T10:02:38;16.40;48.20
65568;DHT22;52211;50.154;8.682;2023-04-10T10:05:07;16.50;48.10
65568;DHT22;52211;50.154;8.682;2023-04-10T10:07:35;16.60;48.10
65568;DHT22;52211;50.154;8.682;2023-04-10T10:10:05;16.70;48.10
65568;DHT22;52211;50.154;8.682;2023-04-10T10:12:44;16.80;47.90
65568;DHT22;52211;50.154;8.682;2023-04-10T10:20:46;17.20;47.60
65568;DHT22;52211;50.154;8.682;2023-04-10T10:23:21;17.30;47.60
65568;DHT22;52211;50.154;8.682;2023-04-10T10:25:49;17.40;47.50
65568;DHT22;52211;50.154;8.682;2023-04-10T10:28:19;17.50;47.30
65568;DHT22;52211;50.154;8.682;2023-04-10T10:30:49;17.60;47.20
65568;DHT22;52211;50.154;8.682;2023-04-10T10:33:19;17.80;47.20
65568;DHT22;52211;50.154;8.682;2023-04-10T10:35:47;17.90;47.00
65568;DHT22;52211;50.154;8.682;2023-04-10T10:38:15;18.00;46.90
65568;DHT22;52211;50.154;8.682;2023-04-10T10:40:53;18.20;46.90
65568;DHT22;52211;50.154;8.682;2023-04-10T10:46:57;18.60;46.20
65568;DHT22;52211;50.154;8.682;2023-04-10T10:52:46;19.20;46.40
65568;DHT22;52211;50.154;8.682;2023-04-10T10:57:48;19.80;46.30
65568;DHT22;52211;50.154;8.682;2023-04-10T11:00:15;20.20;45.90
65568;DHT22;52211;50.154;8.682;2023-04-10T11:02:45;20.40;45.60
65568;DHT22;52211;50.154;8.682;2023-04-10T11:06:00;20.80;45.40
65568;DHT22;52211;50.154;8.682;2023-04-10T11:11:05;21.40;44.30
65568;DHT22;52211;50.154;8.682;2023-04-10T11:13:36;21.80;44.30
65568;DHT22;52211;50.154;8.682;2023-04-10T11:16:12;22.00;44.10
65568;DHT22;52211;50.154;8.682;2023-04-10T11:31:57;23.40;42.40
65568;DHT22;52211;50.154;8.682;2023-04-10T11:34:25;23.60;42.00
65568;DHT22;52211;50.154;8.682;2023-04-10T11:36:53;23.70;41.60
65568;DHT22;52211;50.154;8.682;2023-04-10T11:39:20;23.80;41.40
65568;DHT22;52211;50.154;8.682;2023-04-10T11:41:49;23.90;41.30
65568;DHT22;52211;50.154;8.682;2023-04-10T11:44:26;24.10;41.20
65568;DHT22;52211;50.154;8.682;2023-04-10T11:46:59;24.10;40.10
65568;DHT22;52211;50.154;8.682;2023-04-10T11:49:32;24.30;40.80
65568;DHT22;52211;50.154;8.682;2023-04-10T11:52:02;24.30;40.00
65568;DHT22;52211;50.154;8.682;2023-04-10T11:54:29;24.40;40.30
65568;DHT22;52211;50.154;8.682;2023-04-10T11:57:05;24.50;40.00
65568;DHT22;52211;50.154;8.682;2023-04-10T11:59:47;24.50;39.40
65568;DHT22;52211;50.154;8.682;2023-04-10T12:02:18;24.40;39.00
65568;DHT22;52211;50.154;8.682;2023-04-10T12:04:45;24.30;39.40
65568;DHT22;52211;50.154;8.682;2023-04-10T12:07:23;24.20;38.40
65568;DHT22;52211;50.154;8.682;2023-04-10T12:09:59;24.10;38.60
65568;DHT22;52211;50.154;8.682;2023-04-10T12:12:34;24.00;38.30
65568;DHT22;52211;50.154;8.682;2023-04-10T12:15:24;23.80;37.90
65568;DHT22;52211;50.154;8.682;2023-04-10T12:17:52;23.70;38.00
65568;DHT22;52211;50.154;8.682;2023-04-10T12:20:22;23.60;38.10
65568;DHT22;52211;50.154;8.682;2023-04-10T12:22:54;23.50;38.00
65568;DHT22;52211;50.154;8.682;2023-04-10T12:25:22;23.50;37.90
65568;DHT22;52211;50.154;8.682;2023-04-10T12:27:54;23.40;37.70
65568;DHT22;52211;50.154;8.682;2023-04-10T12:30:23;23.30;37.20
65568;DHT22;52211;50.154;8.682;2023-04-10T12:32:53;23.20;37.00
65568;DHT22;52211;50.154;8.682;2023-04-10T12:35:38;23.10;36.50
65568;DHT22;52211;50.154;8.682;2023-04-10T12:38:08;23.10;36.50
65568;DHT22;52211;50.154;8.682;2023-04-10T12:40:35;23.20;37.20
65568;DHT22;52211;50.154;8.682;2023-04-10T12:43:06;23.20;37.00
65568;DHT22;52211;50.154;8.682;2023-04-10T12:45:44;23.20;36.80
65568;DHT22;52211;50.154;8.682;2023-04-10T12:48:25;23.30;36.20
65568;DHT22;52211;50.154;8.682;2023-04-10T12:50:57;23.30;36.00
65568;DHT22;52211;50.154;8.682;2023-04-10T12:53:27;23.50;36.30
65568;DHT22;52211;50.154;8.682;2023-04-10T12:56:01;23.60;36.30
65568;DHT22;52211;50.154;8.682;2023-04-10T12:58:32;23.70;35.70
65568;DHT22;52211;50.154;8.682;2023-04-10T13:01:03;23.80;35.70
65568;DHT22;52211;50.154;8.682;2023-04-10T13:03:36;23.80;35.30
65568;DHT22;52211;50.154;8.682;2023-04-10T13:06:09;23.80;34.70
65568;DHT22;52211;50.154;8.682;2023-04-10T13:08:46;23.80;34.90
65568;DHT22;52211;50.154;8.682;2023-04-10T13:11:14;23.90;34.90
65568;DHT22;52211;50.154;8.682;2023-04-10T13:13:43;23.90;34.90
65568;DHT22;52211;50.154;8.682;2023-04-10T13:16:14;24.00;34.60
65568;DHT22;52211;50.154;8.682;2023-04-10T13:18:42;24.00;34.60
65568;DHT22;52211;50.154;8.682;2023-04-10T13:21:08;24.00;34.40
65568;DHT22;52211;50.154;8.682;2023-04-10T13:23:35;24.00;34.20
65568;DHT22;52211;50.154;8.682;2023-04-10T13:26:05;24.10;34.20
65568;DHT22;52211;50.154;8.682;2023-04-10T13:28:34;24.10;34.10
65568;DHT22;52211;50.154;8.682;2023-04-10T13:31:03;24.30;34.20
65568;DHT22;52211;50.154;8.682;2023-04-10T13:33:30;24.30;33.40
65568;DHT22;52211;50.154;8.682;2023-04-10T13:35:57;24.40;33.50
65568;DHT22;52211;50.154;8.682;2023-04-10T13:38:29;24.40;33.50
65568;DHT22;52211;50.154;8.682;2023-04-10T13:40:58;24.40;33.40
65568;DHT22;52211;50.154;8.682;2023-04-10T13:43:27;24.50;33.10
65568;DHT22;52211;50.154;8.682;2023-04-10T13:45:56;24.50;32.30
65568;DHT22;52211;50.154;8.682;2023-04-10T13:48:23;24.50;32.40
65568;DHT22;52211;50.154;8.682;2023-04-10T13:51:03;24.50;32.40
65568;DHT22;52211;50.154;8.682;2023-04-10T13:53:32;24.40;32.50
65568;DHT22;52211;50.154;8.682;2023-04-10T13:55:59;24.40;32.30
65568;DHT22;52211;50.154;8.682;2023-04-10T13:58:31;24.30;32.10
65568;DHT22;52211;50.154;8.682;2023-04-10T14:01:04;24.20;31.80
65568;DHT22;52211;50.154;8.682;2023-04-10T14:03:32;24.20;32.00
65568;DHT22;52211;50.154;8.682;2023-04-10T14:06:03;24.20;32.20
65568;DHT22;52211;50.154;8.682;2023-04-10T14:08:33;24.20;32.00
65568;DHT22;52211;50.154;8.682;2023-04-10T14:11:02;24.10;32.10
65568;DHT22;52211;50.154;8.682;2023-04-10T14:13:29;24.10;32.10
65568;DHT22;52211;50.154;8.682;2023-04-10T14:16:01;24.10;31.90
65568;DHT22;52211;50.154;8.682;2023-04-10T14:18:32;24.10;32.00
65568;DHT22;52211;50.154;8.682;2023-04-10T14:20:59;24.10;32.00
65568;DHT22;52211;50.154;8.682;2023-04-10T14:23:30;24.10;32.10
65568;DHT22;52211;50.154;8.682;2023-04-10T14:26:00;24.20;31.90
65568;DHT22;52211;50.154;8.682;2023-04-10T14:28:32;24.20;31.70
65568;DHT22;52211;50.154;8.682;2023-04-10T14:30:59;24.20;31.20
65568;DHT22;52211;50.154;8.682;2023-04-10T14:33:29;24.30;31.50
65568;DHT22;52211;50.154;8.682;2023-04-10T14:35:56;24.30;31.20
65568;DHT22;52211;50.154;8.682;2023-04-10T14:38:29;24.20;31.10
65568;DHT22;52211;50.154;8.682;2023-04-10T14:40:55;24.20;31.10
65568;DHT22;52211;50.154;8.682;2023-04-10T14:43:22;24.20;31.20
65568;DHT22;52211;50.154;8.682;2023-04-10T14:45:52;24.10;31.00
65568;DHT22;52211;50.154;8.682;2023-04-10T14:48:19;24.10;30.80
65568;DHT22;52211;50.154;8.682;2023-04-10T14:50:50;24.00;30.80
65568;DHT22;52211;50.154;8.682;2023-04-10T14:53:20;24.00;30.80
65568;DHT22;52211;50.154;8.682;2023-04-10T14:55:48;24.00;30.70
65568;DHT22;52211;50.154;8.682;2023-04-10T14:58:17;23.90;30.60
65568;DHT22;52211;50.154;8.682;2023-04-10T15:00:52;23.90;30.60
65568;DHT22;52211;50.154;8.682;2023-04-10T15:03:19;23.90;30.60
65568;DHT22;52211;50.154;8.682;2023-04-10T15:05:58;23.90;30.70
65568;DHT22;52211;50.154;8.682;2023-04-10T15:08:28;23.80;30.40
65568;DHT22;52211;50.154;8.682;2023-04-10T15:10:59;23.80;30.50
65568;DHT22;52211;50.154;8.682;2023-04-10T15:13:27;23.70;30.50
65568;DHT22;52211;50.154;8.682;2023-04-10T15:15:54;23.70;30.40
65568;DHT22;52211;50.154;8.682;2023-04-10T15:18:25;23.60;30.40
65568;DHT22;52211;50.154;8.682;2023-04-10T15:20:52;23.50;30.40
65568;DHT22;52211;50.154;8.682;2023-04-10T15:23:21;23.40;30.30
65568;DHT22;52211;50.154;8.682;2023-04-10T15:25:52;23.30;30.20
65568;DHT22;52211;50.154;8.682;2023-04-10T15:28:25;23.20;30.10
65568;DHT22;52211;50.154;8.682;2023-04-10T15:30:53;23.10;30.20
65568;DHT22;52211;50.154;8.682;2023-04-10T15:33:20;23.00;30.20
65568;DHT22;52211;50.154;8.682;2023-04-10T15:35:50;22.90;30.10
65568;DHT22;52211;50.154;8.682;2023-04-10T15:38:21;22.90;30.10
65568;DHT22;52211;50.154;8.682;2023-04-10T15:40:51;22.80;30.00
65568;DHT22;52211;50.154;8.682;2023-04-10T15:43:20;22.70;30.10
65568;DHT22;52211;50.154;8.682;2023-04-10T15:45:47;22.70;30.10
65568;DHT22;52211;50.154;8.682;2023-04-10T15:48:19;22.70;30.10
65568;DHT22;52211;50.154;8.682;2023-04-10T15:50:50;22.60;30.10
65568;DHT22;52211;50.154;8.682;2023-04-10T15:53:19;22.50;30.10
65568;DHT22;52211;50.154;8.682;2023-04-10T15:55:53;22.50;30.10
65568;DHT22;52211;50.154;8.682;2023-04-10T15:58:22;22.50;30.10
65568;DHT22;52211;50.154;8.682;2023-04-10T16:00:49;22.50;30.10
65568;DHT22;52211;50.154;8.682;2023-04-10T16:03:18;22.50;30.00
65568;DHT22;52211;50.154;8.682;2023-04-10T16:05:50;22.50;30.00
65568;DHT22;52211;50.154;8.682;2023-04-10T16:08:18;22.50;29.90
65568;DHT22;52211;50.154;8.682;2023-04-10T16:10:45;22.60;30.00
65568;DHT22;52211;50.154;8.682;2023-04-10T16:13:16;22.60;30.00
65568;DHT22;52211;50.154;8.682;2023-04-10T16:15:45;22.60;29.70
65568;DHT22;52211;50.154;8.682;2023-04-10T16:18:17;22.60;29.70
65568;DHT22;52211;50.154;8.682;2023-04-10T16:20:48;22.60;29.60
65568;DHT22;52211;50.154;8.682;2023-04-10T16:23:15;22.60;29.60
65568;DHT22;52211;50.154;8.682;2023-04-10T16:25:42;22.60;29.70
65568;DHT22;52211;50.154;8.682;2023-04-10T16:28:18;22.60;29.60
65568;DHT22;52211;50.154;8.682;2023-04-10T16:30:48;22.60;29.50
65568;DHT22;52211;50.154;8.682;2023-04-10T16:33:17;22.40;29.40
65568;DHT22;52211;50.154;8.682;2023-04-10T16:35:49;22.40;29.50
65568;DHT22;52211;50.154;8.682;2023-04-10T16:38:21;22.30;29.40
65568;DHT22;52211;50.154;8.682;2023-04-10T16:40:51;22.20;29.50
65568;DHT22;52211;50.154;8.682;2023-04-10T16:43:20;22.20;29.40
65568;DHT22;52211;50.154;8.682;2023-04-10T16:45:56;22.10;29.40
65568;DHT22;52211;50.154;8.682;2023-04-10T16:48:25;22.00;28.90
65568;DHT22;52211;50.154;8.682;2023-04-10T16:50:52;21.90;29.30
65568;DHT22;52211;50.154;8.682;2023-04-10T16:53:19;21.80;29.30
65568;DHT22;52211;50.154;8.682;2023-04-10T16:55:57;21.70;29.40
65568;DHT22;52211;50.154;8.682;2023-04-10T16:58:31;21.60;29.20
65568;DHT22;52211;50.154;8.682;2023-04-10T17:01:14;21.60;29.50
65568;DHT22;52211;50.154;8.682;2023-04-10T17:03:46;21.50;29.50
65568;DHT22;52211;50.154;8.682;2023-04-10T17:06:18;21.40;29.40